Time;durP1;ratioP1;P1;durP2;ratioP2;P2;SDS_P1;SDS_P2;PMS_P1;PMS_P2;Temp;Humidity;BMP_temperature;BMP_pressure;BME280_temperature;BME280_humidity;BME280_pressure;Samples;Min_cycle;Max_cycle;Signal;HPM_P1;HPM_P2
2023/10/06 00:02:15;;;;;;;6.43;5.50;;;;;;;22.88;58.67;98551.66;5012888;28;20603;-23
2023/10/06 00:04:42;;;;;;;8.13;5.80;;;;;;;22.88;58.37;98548.22;5015864;28;20662;-24
2023/10/06 00:07:08;;;;;;;7.43;5.57;;;;;;;22.89;58.31;98552.53;5016289;28;20209;-29
2023/10/06 00:09:35;;;;;;;8.30;5.37;;;;;;;22.88;58.38;98559.34;5016890;28;20206;-23
2023/10/06 00:12:05;;;;;;;7.27;5.40;;;;;;;22.89;58.11;98560.22;5019284;28;20208;-23
2023/10/06 00:14:43;;;;;;;7.57;5.37;;;;;;;22.89;58.05;98544.84;5018138;28;20222;-23
2023/10/06 00:17:16;;;;;;;8.00;5.80;;;;;;;22.89;58.03;98555.09;5015181;28;20591;-23
2023/10/06 00:19:47;;;;;;;7.60;5.43;;;;;;;22.89;57.95;98549.97;5015913;28;20198;-23
2023/10/06 00:24:47;;;;;;;7.90;5.40;;;;;;;22.89;57.57;98562.81;5020073;28;20305;-23
2023/10/06 00:27:14;;;;;;;6.67;5.13;;;;;;;22.89;57.69;98560.22;5007806;28;20202;-23
2023/10/06 00:29:48;;;;;;;6.97;5.03;;;;;;;22.89;58.13;98557.66;5012172;28;20198;-23
2023/10/06 00:32:26;;;;;;;6.10;4.77;;;;;;;22.87;58.12;98557.59;5012687;28;20234;-22
2023/10/06 00:34:55;;;;;;;7.47;5.23;;;;;;;22.87;58.14;98562.75;5012132;28;20230;-24
2023/10/06 00:37:22;;;;;;;7.27;5.07;;;;;;;22.87;57.85;98566.97;5012448;28;20583;-24
2023/10/06 00:39:56;;;;;;;7.70;5.50;;;;;;;22.87;57.66;98556.72;5021875;28;20197;-27
2023/10/06 00:42:22;;;;;;;6.00;4.83;;;;;;;22.87;57.58;98561.84;5015472;28;20202;-23
2023/10/06 00:44:49;;;;;;;7.13;4.97;;;;;;;22.87;57.46;98557.59;5025609;28;20218;-23
2023/10/06 00:47:17;;;;;;;8.03;5.37;;;;;;;22.87;57.41;98552.47;5012195;28;20209;-23
2023/10/06 00:49:44;;;;;;;5.83;4.50;;;;;;;22.87;57.33;98555.03;5012740;28;20202;-23
2023/10/06 00:52:15;;;;;;;6.27;4.80;;;;;;;22.88;57.10;98555.91;5021540;28;20210;-23
2023/10/06 00:54:43;;;;;;;6.27;5.20;;;;;;;22.88;57.20;98556.78;5005995;28;20700;-23
2023/10/06 00:57:11;;;;;;;7.00;4.70;;;;;;;22.88;57.09;98554.22;5008638;28;20229;-23
2023/10/06 00:59:38;;;;;;;6.87;5.03;;;;;;;22.88;57.20;98556.78;5011841;28;20210;-23
2023/10/06 01:02:11;;;;;;;6.83;5.30;;;;;;;22.88;56.73;98549.09;5006121;28;20266;-23
2023/10/06 01:04:45;;;;;;;6.67;4.87;;;;;;;22.87;56.93;98544.78;5009309;28;20218;-23
2023/10/06 01:07:16;;;;;;;7.90;4.90;;;;;;;22.89;57.59;98549.97;5011659;28;20678;-23
2023/10/06 01:09:57;;;;;;;5.10;4.43;;;;;;;22.88;57.41;98550.78;5013464;28;20202;-23
2023/10/06 01:12:31;;;;;;;6.30;4.90;;;;;;;22.86;57.53;98553.28;5011952;28;20202;-23
2023/10/06 01:15:17;;;;;;;6.53;4.90;;;;;;;22.86;57.42;98549.84;5014451;28;20296;-23
2023/10/06 01:17:44;;;;;;;5.50;4.50;;;;;;;22.86;57.13;98549.84;5011786;28;20635;-23
2023/10/06 01:20:13;;;;;;;5.97;4.60;;;;;;;22.87;57.23;98551.59;5005259;28;20202;-23
2023/10/06 01:22:43;;;;;;;6.90;4.90;;;;;;;22.86;56.64;98553.28;5010866;28;20622;-23
2023/10/06 01:25:20;;;;;;;6.90;4.83;;;;;;;22.87;56.73;98551.59;5008365;28;20620;-23
2023/10/06 01:27:50;;;;;;;5.37;4.20;;;;;;;22.87;56.77;98549.91;5020162;28;20201;-24
2023/10/06 01:30:18;;;;;;;5.90;4.40;;;;;;;22.88;56.75;98548.22;5019970;28;20206;-22
2023/10/06 01:32:45;;;;;;;6.00;4.70;;;;;;;22.87;56.58;98547.34;5017736;28;20233;-23
2023/10/06 01:35:13;;;;;;;6.00;4.63;;;;;;;22.89;56.67;98542.28;5012499;28;20210;-23
2023/10/06 01:37:43;;;;;;;5.60;4.17;;;;;;;22.89;56.63;98547.41;5010930;28;20218;-23
2023/10/06 01:40:44;;;;;;;6.30;4.57;;;;;;;22.89;56.29;98547.41;5016763;28;20229;-23
2023/10/06 01:43:10;;;;;;;4.97;4.10;;;;;;;22.88;56.30;98543.09;5019779;28;20688;-24
2023/10/06 01:45:43;;;;;;;5.33;4.20;;;;;;;22.87;56.35;98542.22;5007101;28;20253;-23
2023/10/06 01:50:41;;;;;;;5.63;4.23;;;;;;;22.86;56.78;98553.28;5010610;28;20203;-23
2023/10/06 01:53:18;;;;;;;5.40;4.37;;;;;;;22.86;56.81;98550.72;5006163;28;20262;-22
2023/10/06 01:55:51;;;;;;;6.07;4.60;;;;;;;22.86;56.85;98553.28;5009845;28;20288;-23
2023/10/06 01:58:19;;;;;;;5.60;4.23;;;;;;;22.87;56.58;98551.59;5011291;28;20253;-23
2023/10/06 02:00:48;;;;;;;5.17;4.13;;;;;;;22.86;56.28;98553.28;5010716;28;20673;-23
2023/10/06 02:03:16;;;;;;;4.97;3.83;;;;;;;22.86;56.25;98544.72;5010668;28;20229;-22
2023/10/06 02:05:43;;;;;;;5.47;4.33;;;;;;;22.86;56.18;98557.56;5010837;28;20260;-23
2023/10/06 02:08:14;;;;;;;4.97;4.47;;;;;;;22.87;56.46;98549.03;5008719;28;20206;-23
2023/10/06 02:10:43;;;;;;;6.83;5.00;;;;;;;22.87;56.00;98544.78;5010716;28;20289;-23
2023/10/06 02:13:10;;;;;;;5.93;4.50;;;;;;;22.87;55.95;98551.59;5006930;28;20222;-23
2023/10/06 02:15:36;;;;;;;6.53;4.40;;;;;;;22.86;55.84;98545.59;5007336;28;20209;-23
2023/10/06 02:18:07;;;;;;;7.13;4.83;;;;;;;22.87;55.95;98543.91;5016166;28;20217;-24
2023/10/06 02:20:34;;;;;;;7.73;4.63;;;;;;;22.87;55.57;98546.47;5015723;28;20304;-23
2023/10/06 02:23:03;;;;;;;7.13;5.00;;;;;;;22.87;55.79;98551.59;5014888;28;20715;-23
2023/10/06 02:25:31;;;;;;;5.53;4.13;;;;;;;22.86;55.70;98543.03;5014943;28;20777;-23
2023/10/06 02:28:04;;;;;;;7.43;4.83;;;;;;;22.85;55.80;98538.72;5021329;28;20199;-24
2023/10/06 02:30:33;;;;;;;5.70;4.70;;;;;;;22.86;56.32;98537.03;5010930;28;20202;-22
2023/10/06 02:33:00;;;;;;;6.73;4.90;;;;;;;22.85;56.16;98533.59;5014165;28;20218;-23
2023/10/06 02:35:27;;;;;;;5.87;4.90;;;;;;;22.85;55.97;98536.16;5017424;28;20198;-23
2023/10/06 02:37:57;;;;;;;5.60;4.77;;;;;;;22.85;55.94;98525.91;5018229;28;20566;-23
2023/10/06 02:40:37;;;;;;;7.23;4.97;;;;;;;22.83;55.49;98524.09;5014560;28;20210;-23
2023/10/06 02:43:09;;;;;;;6.53;5.00;;;;;;;22.85;55.60;98523.34;5011052;28;20786;-23
2023/10/06 02:45:40;;;;;;;7.10;5.00;;;;;;;22.85;55.62;98536.16;5014293;28;20293;-22
2023/10/06 02:48:21;;;;;;;6.73;4.90;;;;;;;22.85;55.36;98525.91;5014638;28;20204;-23
2023/10/06 02:50:54;;;;;;;6.80;4.93;;;;;;;22.85;55.27;98528.47;5014528;28;20289;-22
2023/10/06 02:53:21;;;;;;;6.80;4.83;;;;;;;22.86;55.38;98529.34;5013838;28;20222;-23
2023/10/06 02:55:55;;;;;;;7.67;4.87;;;;;;;22.86;55.24;98531.91;5015441;28;20198;-23
2023/10/06 02:58:30;;;;;;;6.63;4.80;;;;;;;22.85;54.95;98523.34;5019651;28;20607;-23
2023/10/06 03:00:57;;;;;;;6.30;4.60;;;;;;;22.85;54.62;98525.91;5013534;28;20197;-23
2023/10/06 03:03:27;;;;;;;6.43;4.53;;;;;;;22.85;55.08;98536.16;5006774;28;20214;-23
2023/10/06 03:05:56;;;;;;;7.70;4.97;;;;;;;22.85;55.26;98532.72;5019335;28;20210;-24
2023/10/06 03:08:25;;;;;;;6.67;4.63;;;;;;;22.85;55.66;98532.72;5021133;28;20194;-23
2023/10/06 03:10:52;;;;;;;6.40;4.83;;;;;;;22.85;55.63;98531.03;5022215;28;20198;-23
2023/10/06 03:13:33;;;;;;;6.37;4.53;;;;;;;22.85;55.33;98535.28;5015102;28;20222;-22
2023/10/06 03:16:00;;;;;;;6.80;4.70;;;;;;;22.84;55.30;98534.41;5011497;28;20268;-23
2023/10/06 03:18:26;;;;;;;5.93;4.70;;;;;;;22.84;55.17;98539.53;5010156;28;20218;-22
2023/10/06 03:21:01;;;;;;;7.10;5.00;;;;;;;22.84;54.86;98539.53;5015110;28;20202;-23
2023/10/06 03:25:58;;;;;;;7.93;5.10;;;;;;;22.84;54.76;98544.66;5020122;28;20213;-23
2023/10/06 03:28:36;;;;;;;5.93;4.57;;;;;;;22.83;54.49;98540.34;5013749;28;20191;-23
2023/10/06 03:31:21;;;;;;;7.63;4.83;;;;;;;22.84;54.39;98543.78;5011936;28;20281;-22
2023/10/06 03:33:49;;;;;;;6.60;4.83;;;;;;;22.84;54.63;98539.53;5014416;28;20222;-23
2023/10/06 03:36:16;;;;;;;6.10;4.93;;;;;;;22.84;54.55;98539.53;5012737;28;20202;-23
2023/10/06 03:38:55;;;;;;;6.40;4.67;;;;;;;22.85;54.28;98542.97;5012827;28;20214;-23
2023/10/06 03:41:31;;;;;;;5.87;4.40;;;;;;;22.84;55.03;98546.34;5015240;28;20206;-23
2023/10/06 03:44:00;;;;;;;6.83;4.67;;;;;;;22.84;54.96;98543.78;4996083;28;20640;-23
2023/10/06 03:46:36;;;;;;;5.30;4.10;;;;;;;22.85;55.41;98542.97;5009813;28;20213;-23
2023/10/06 03:49:03;;;;;;;5.30;4.30;;;;;;;22.83;54.89;98542.03;5007821;28;20201;-23
2023/10/06 03:51:33;;;;;;;5.53;4.50;;;;;;;22.83;54.97;98542.91;5022836;28;20197;-22
2023/10/06 03:54:00;;;;;;;5.60;4.27;;;;;;;22.82;54.78;98546.28;5010646;28;20242;-23
2023/10/06 03:56:27;;;;;;;6.27;5.03;;;;;;;22.82;54.49;98536.03;5019763;28;20256;-23
2023/10/06 03:58:54;;;;;;;6.97;4.40;;;;;;;22.82;54.55;98530.91;5013950;28;20344;-23
2023/10/06 04:01:26;;;;;;;6.30;4.40;;;;;;;22.82;54.51;98542.84;5011974;28;20206;-24
2023/10/06 04:03:59;;;;;;;5.43;4.23;;;;;;;22.81;54.23;98539.41;5017952;28;20218;-26
2023/10/06 04:06:26;;;;;;;5.43;4.73;;;;;;;22.82;54.07;98536.03;5018994;28;20202;-23
2023/10/06 04:08:53;;;;;;;5.73;4.53;;;;;;;22.82;53.83;98533.47;5012611;28;20191;-24
2023/10/06 04:11:20;;;;;;;5.43;4.10;;;;;;;22.82;53.73;98543.72;5013462;28;20201;-23
2023/10/06 04:13:47;;;;;;;6.37;4.50;;;;;;;22.82;53.72;98538.59;5012765;28;20254;-23
2023/10/06 04:16:14;;;;;;;6.27;4.87;;;;;;;22.82;53.14;98537.72;5012992;28;20202;-23
2023/10/06 04:18:41;;;;;;;5.73;4.57;;;;;;;22.82;53.33;98535.16;5014321;28;20221;-23
2023/10/06 04:21:11;;;;;;;5.70;4.70;;;;;;;22.83;54.05;98534.34;5019483;28;20275;-24
2023/10/06 04:23:44;;;;;;;7.50;4.27;;;;;;;22.82;54.47;98533.47;5023165;28;20221;-24
2023/10/06 04:26:11;;;;;;;5.47;4.23;;;;;;;22.81;54.55;98529.16;5019586;28;20239;-23
2023/10/06 04:28:38;;;;;;;4.73;4.20;;;;;;;22.82;54.87;98533.47;5018091;28;20232;-24
2023/10/06 04:31:08;;;;;;;5.43;4.23;;;;;;;22.83;55.05;98526.66;5015990;28;20198;-23
2023/10/06 04:33:34;;;;;;;4.80;4.17;;;;;;;22.83;55.03;98529.22;5025992;28;20301;-23
2023/10/06 04:36:11;;;;;;;5.00;3.93;;;;;;;22.85;55.06;98522.44;5017315;28;20213;-24
2023/10/06 04:38:39;;;;;;;4.63;3.93;;;;;;;22.79;55.08;98501.72;5022879;28;20220;-24
2023/10/06 04:41:08;;;;;;;5.83;3.90;;;;;;;22.81;55.25;98510.34;5015422;28;20290;-23
2023/10/06 04:43:44;;;;;;;4.17;3.70;;;;;;;22.83;55.45;98519.81;5010203;28;20254;-23
2023/10/06 04:46:11;;;;;;;4.13;3.60;;;;;;;22.86;55.48;98519.94;5011524;28;20208;-23
2023/10/06 04:48:38;;;;;;;6.07;4.20;;;;;;;22.82;55.65;98512.97;5012006;28;20665;-23
2023/10/06 04:51:05;;;;;;;4.80;3.73;;;;;;;22.87;55.81;98513.16;5015664;28;20213;-29
2023/10/06 04:53:35;;;;;;;3.90;3.50;;;;;;;22.87;55.86;98521.72;5039311;22;20225;-26
2023/10/06 04:56:03;;;;;;;4.83;3.70;;;;;;;22.87;55.94;98518.28;5021099;28;20281;-25
2023/10/06 04:58:30;;;;;;;5.40;3.57;;;;;;;22.83;56.30;98518.97;5022614;28;20207;-24
2023/10/06 05:01:00;;;;;;;4.00;3.50;;;;;;;22.88;56.58;98525.13;5024469;28;20561;-23
2023/10/06 05:03:27;;;;;;;5.37;3.30;;;;;;;22.87;56.34;98521.72;5014365;28;20288;-25
2023/10/06 05:05:56;;;;;;;4.47;3.40;;;;;;;22.86;56.23;98522.50;5008723;28;20581;-24
2023/10/06 05:08:24;;;;;;;3.40;3.10;;;;;;;22.88;56.32;98533.72;5010615;28;20206;-26
2023/10/06 05:10:52;;;;;;;3.70;3.10;;;;;;;22.87;55.04;98531.97;5006851;28;20236;-25
2023/10/06 05:13:19;;;;;;;4.73;4.10;;;;;;;22.86;52.21;98526.78;5011195;28;20304;-25
2023/10/06 05:15:46;;;;;;;5.97;4.50;;;;;;;22.85;50.24;98528.47;5009374;28;20206;-25
2023/10/06 05:18:18;;;;;;;6.30;5.07;;;;;;;22.83;49.24;98537.78;5007797;28;20206;-25
2023/10/06 05:20:46;;;;;;;5.33;4.80;;;;;;;22.84;48.32;98536.09;5008707;28;20209;-25
2023/10/06 05:23:14;;;;;;;7.90;5.50;;;;;;;22.83;47.68;98542.03;5005012;28;20309;-25
2023/10/06 05:25:42;;;;;;;7.37;5.43;;;;;;;22.82;47.19;98538.59;5000711;28;20261;-25
2023/10/06 05:28:12;;;;;;;6.17;4.80;;;;;;;22.80;48.12;98537.66;5010116;28;20206;-26
2023/10/06 05:30:39;;;;;;;8.77;5.23;;;;;;;22.81;49.22;98541.97;5010457;28;20194;-26
2023/10/06 05:33:05;;;;;;;7.37;5.40;;;;;;;22.80;49.65;98537.66;4998652;28;20213;-26
2023/10/06 05:35:38;;;;;;;9.13;4.80;;;;;;;22.80;49.94;98526.53;5007448;28;20206;-24
2023/10/06 05:38:12;;;;;;;7.13;4.93;;;;;;;22.79;49.87;98535.03;5003384;28;20210;-24
2023/10/06 05:40:40;;;;;;;5.60;4.63;;;;;;;22.78;49.97;98536.72;5008144;28;20218;-26
2023/10/06 05:43:11;;;;;;;10.23;5.07;;;;;;;22.77;50.46;98540.09;5009430;28;20584;-25
2023/10/06 05:45:41;;;;;;;6.87;4.73;;;;;;;22.79;50.60;98547.84;5009975;28;20198;-25
2023/10/06 05:48:12;;;;;;;8.97;4.40;;;;;;;22.79;50.71;98545.28;5011473;28;20202;-26
2023/10/06 05:50:40;;;;;;;7.47;4.37;;;;;;;22.78;50.03;98549.56;5011137;28;20194;-25
2023/10/06 05:53:19;;;;;;;8.40;5.13;;;;;;;22.77;49.60;98550.34;5011192;28;20202;-25
2023/10/06 05:55:49;;;;;;;6.97;4.90;;;;;;;22.76;48.35;98550.28;5006055;28;20202;-25
2023/10/06 05:58:19;;;;;;;8.50;5.47;;;;;;;22.76;46.92;98547.72;5002979;28;20254;-26
2023/10/06 06:01:05;;;;;;;8.13;4.87;;;;;;;22.76;47.24;98552.84;5000187;28;20248;-26
2023/10/06 06:03:32;;;;;;;8.87;4.90;;;;;;;22.77;48.44;98552.06;5002641;28;20660;-25
2023/10/06 06:06:08;;;;;;;7.87;5.20;;;;;;;22.77;49.16;98555.47;5001658;28;20202;-25
2023/10/06 06:08:35;;;;;;;8.13;4.90;;;;;;;22.72;49.66;98540.72;5005378;28;20289;-26
2023/10/06 06:11:02;;;;;;;8.60;4.73;;;;;;;22.78;49.93;98562.38;5006255;28;20221;-24
2023/10/06 06:13:30;;;;;;;5.47;4.10;;;;;;;22.77;50.13;98554.63;5004991;28;20221;-26
2023/10/06 06:15:56;;;;;;;7.20;5.00;;;;;;;22.76;50.52;98558.84;5015049;28;20206;-24
2023/10/06 06:18:27;;;;;;;5.47;4.13;;;;;;;22.78;50.55;98564.94;5006786;28;20283;-25
2023/10/06 06:20:54;;;;;;;5.00;4.10;;;;;;;22.78;50.77;98576.84;5015259;28;20588;-26
2023/10/06 06:23:20;;;;;;;7.20;4.87;;;;;;;22.77;50.61;98578.53;5002440;28;20219;-25
2023/10/06 06:25:47;;;;;;;7.00;4.17;;;;;;;22.75;51.06;98567.38;5010956;28;20669;-25
2023/10/06 06:28:16;;;;;;;4.43;3.93;;;;;;;22.78;51.02;98575.19;5012521;28;20699;-26
2023/10/06 06:30:43;;;;;;;5.10;4.10;;;;;;;22.79;51.42;98581.16;5009541;28;20199;-25
2023/10/06 06:33:12;;;;;;;6.87;4.10;;;;;;;22.80;51.56;98590.63;5014579;28;20226;-25
2023/10/06 06:35:41;;;;;;;4.93;3.83;;;;;;;22.79;51.78;98581.16;5012046;28;20575;-25
2023/10/06 06:38:12;;;;;;;5.60;4.27;;;;;;;22.81;51.98;98589.78;5009907;28;20198;-25
2023/10/06 06:40:39;;;;;;;6.43;3.87;;;;;;;22.80;51.90;98577.81;5011284;28;20309;-25
2023/10/06 06:43:09;;;;;;;7.27;4.43;;;;;;;22.65;52.05;98554.97;5008005;28;20206;-26
2023/10/06 06:45:39;;;;;;;5.97;3.90;;;;;;;22.81;52.26;98588.13;5014369;28;20276;-25
2023/10/06 06:48:13;;;;;;;4.97;3.60;;;;;;;22.82;52.32;98588.97;5011632;28;20202;-25
2023/10/06 06:50:42;;;;;;;5.47;4.00;;;;;;;22.81;52.21;98588.13;5007672;28;20190;-25
2023/10/06 06:53:12;;;;;;;4.17;3.63;;;;;;;22.82;52.26;98588.97;5013548;28;20201;-26
2023/10/06 06:55:39;;;;;;;7.07;4.07;;;;;;;22.82;52.15;98595.00;5008936;28;20199;-26
2023/10/06 06:58:10;;;;;;;7.20;4.13;;;;;;;22.83;52.26;98594.16;5010807;28;20249;-25
2023/10/06 07:00:39;;;;;;;4.73;3.63;;;;;;;22.82;52.03;98592.41;5012700;28;20230;-25
2023/10/06 07:03:06;;;;;;;4.60;3.77;;;;;;;22.83;52.56;98590.75;5006084;28;20257;-25
2023/10/06 07:05:36;;;;;;;5.27;3.83;;;;;;;22.83;52.50;98589.03;5012497;28;20214;-25
2023/10/06 07:08:06;;;;;;;4.53;3.80;;;;;;;22.85;52.62;98594.22;5013635;28;20206;-25
2023/10/06 07:10:38;;;;;;;4.17;3.63;;;;;;;22.85;52.64;98594.22;5005701;28;20638;-25
2023/10/06 07:13:05;;;;;;;4.90;3.90;;;;;;;22.85;52.65;98596.78;5013565;28;20209;-25
2023/10/06 07:15:33;;;;;;;4.30;3.63;;;;;;;22.86;52.94;98596.84;5012985;28;20210;-24
2023/10/06 07:18:00;;;;;;;5.27;3.67;;;;;;;22.86;52.87;98594.28;5004343;28;20203;-25
2023/10/06 07:20:28;;;;;;;6.07;3.93;;;;;;;22.87;53.05;98600.31;5004784;28;20804;-25
2023/10/06 07:23:00;;;;;;;4.47;3.87;;;;;;;22.87;53.07;98590.03;5012776;28;20770;-26
2023/10/06 07:25:27;;;;;;;4.27;3.60;;;;;;;22.87;53.13;98596.06;5000803;28;20686;-24
2023/10/06 07:27:57;;;;;;;4.83;3.57;;;;;;;22.87;53.19;98590.03;5008322;28;20238;-26
2023/10/06 07:30:25;;;;;;;4.60;3.60;;;;;;;22.86;52.91;98591.72;5004058;28;20242;-25
2023/10/06 07:32:54;;;;;;;4.20;3.53;;;;;;;22.87;52.95;98590.03;5011844;28;20217;-25
2023/10/06 07:35:36;;;;;;;5.17;3.87;;;;;;;22.87;52.88;98593.50;5011300;28;20202;-25
2023/10/06 07:38:03;;;;;;;6.10;4.47;;;;;;;22.88;52.86;98589.22;5013462;28;20206;-25
2023/10/06 07:40:31;;;;;;;4.37;3.77;;;;;;;22.89;53.00;98591.00;5006784;28;20219;-25
2023/10/06 07:42:58;;;;;;;4.17;3.50;;;;;;;22.79;53.07;98568.34;5012427;28;20216;-26
2023/10/06 07:45:28;;;;;;;5.53;4.00;;;;;;;22.89;53.15;98581.59;5004438;28;20198;-25
2023/10/06 07:47:54;;;;;;;5.83;3.70;;;;;;;22.89;53.25;98579.03;5008585;28;20202;-25
2023/10/06 07:50:21;;;;;;;5.33;3.70;;;;;;;22.89;53.46;98576.47;5012915;28;20195;-25
2023/10/06 07:52:48;;;;;;;5.77;4.00;;;;;;;22.89;53.44;98570.50;5004658;28;20225;-25
2023/10/06 07:55:16;;;;;;;4.10;3.70;;;;;;;22.90;53.50;98569.66;5010464;28;20246;-25
2023/10/06 07:57:47;;;;;;;4.03;3.57;;;;;;;22.89;53.60;98571.34;5008347;28;20271;-25
2023/10/06 08:00:27;;;;;;;4.73;3.60;;;;;;;22.90;53.65;98568.00;5012274;28;20222;-25
2023/10/06 08:02:57;;;;;;;4.23;3.47;;;;;;;22.88;53.67;98566.16;5010226;28;20206;-26
2023/10/06 08:05:24;;;;;;;3.93;3.50;;;;;;;22.91;53.59;98573.97;5007864;28;20257;-26
2023/10/06 08:07:57;;;;;;;5.17;3.87;;;;;;;22.90;53.61;98572.22;5013191;28;20208;-25
2023/10/06 08:10:23;;;;;;;4.60;3.53;;;;;;;22.90;53.56;98573.13;5010253;28;20289;-25
2023/10/06 08:12:51;;;;;;;3.60;3.30;;;;;;;22.90;53.49;98575.69;5003219;28;20224;-25
2023/10/06 08:15:18;;;;;;;5.07;3.73;;;;;;;22.90;53.43;98569.66;5006888;28;20209;-26
2023/10/06 08:17:45;;;;;;;4.57;3.50;;;;;;;22.90;53.55;98570.56;5002386;28;20199;-25
2023/10/06 08:20:13;;;;;;;4.50;3.63;;;;;;;22.91;53.56;98563.72;5011225;28;20709;-23
2023/10/06 08:22:39;;;;;;;4.30;3.50;;;;;;;22.91;53.66;98561.16;5005218;28;20257;-26
2023/10/06 08:25:06;;;;;;;5.33;3.43;;;;;;;22.92;53.74;98561.22;5001941;28;20223;-25
2023/10/06 08:27:33;;;;;;;4.37;3.20;;;;;;;22.92;53.86;98570.63;5004451;28;20617;-26
2023/10/06 08:29:59;;;;;;;4.30;3.57;;;;;;;22.91;53.80;98568.84;5011734;28;20218;-25
2023/10/06 08:32:26;;;;;;;4.27;3.83;;;;;;;22.92;54.04;98573.19;5011973;28;21274;-25
2023/10/06 08:34:53;;;;;;;4.60;3.70;;;;;;;22.93;54.21;98578.38;5006931;28;20218;-25
2023/10/06 08:37:20;;;;;;;3.77;3.37;;;;;;;22.93;54.18;98582.59;5001516;28;20256;-25
2023/10/06 08:39:49;;;;;;;4.13;3.53;;;;;;;22.91;54.08;98585.09;5005729;28;20312;-26
2023/10/06 08:42:15;;;;;;;4.07;3.47;;;;;;;22.92;54.07;98583.44;5008504;28;20689;-25
2023/10/06 08:44:42;;;;;;;4.40;3.27;;;;;;;22.93;54.08;98587.72;5011781;28;20279;-26
2023/10/06 08:47:12;;;;;;;3.60;3.30;;;;;;;22.94;53.84;98586.91;5006867;28;20206;-24
2023/10/06 08:49:54;;;;;;;3.90;3.33;;;;;;;22.93;53.27;98583.50;5006902;28;20194;-25
2023/10/06 08:52:23;;;;;;;3.23;2.90;;;;;;;22.93;53.70;98587.72;5010375;28;20216;-25
2023/10/06 08:54:49;;;;;;;4.63;3.60;;;;;;;22.92;53.88;98586.84;5005535;28;20227;-26
2023/10/06 08:57:16;;;;;;;6.63;3.73;;;;;;;22.94;54.04;98586.91;5022569;28;20621;-26
2023/10/06 08:59:44;;;;;;;4.70;3.53;;;;;;;22.93;54.17;98583.50;5006409;28;20233;-24
2023/10/06 09:02:11;;;;;;;7.20;3.67;;;;;;;22.93;54.10;98575.81;5008040;28;20213;-26
2023/10/06 09:04:38;;;;;;;3.40;3.10;;;;;;;22.94;54.11;98574.09;5010138;28;20815;-25
2023/10/06 09:07:08;;;;;;;3.70;3.20;;;;;;;22.94;54.28;98569.84;5009460;28;20202;-25
2023/10/06 09:09:36;;;;;;;3.70;3.17;;;;;;;22.94;54.13;98562.16;5008798;28;20212;-25
2023/10/06 09:12:03;;;;;;;4.30;3.47;;;;;;;22.95;54.12;98561.34;5006791;28;20275;-25
2023/10/06 09:14:31;;;;;;;3.90;3.27;;;;;;;22.94;54.06;98564.72;5011326;28;20622;-26
2023/10/06 09:17:01;;;;;;;4.03;3.60;;;;;;;22.95;54.08;98566.47;5009538;28;20267;-26
2023/10/06 09:19:46;;;;;;;4.37;3.50;;;;;;;22.94;54.09;98559.59;5008405;28;20199;-25
2023/10/06 09:22:14;;;;;;;5.07;3.70;;;;;;;22.95;54.12;98561.34;5007960;28;20281;-26
2023/10/06 09:24:40;;;;;;;4.87;3.90;;;;;;;22.94;54.21;98562.16;5009676;28;20219;-25
2023/10/06 09:27:19;;;;;;;4.10;3.37;;;;;;;22.95;54.29;98561.34;5006327;28;20206;-25
2023/10/06 09:29:46;;;;;;;8.30;3.73;;;;;;;22.96;54.34;98560.53;5003254;28;20683;-25
2023/10/06 09:32:20;;;;;;;4.57;3.83;;;;;;;22.96;54.45;98551.97;5004265;28;20203;-26
2023/10/06 09:34:47;;;;;;;3.97;3.57;;;;;;;22.96;54.49;98547.72;5000653;28;20243;-25
2023/10/06 09:37:20;;;;;;;5.57;3.57;;;;;;;22.97;54.56;98551.13;5008281;28;20214;-25
2023/10/06 09:39:57;;;;;;;5.07;4.00;;;;;;;22.97;54.56;98549.47;5007776;28;20605;-25
2023/10/06 09:42:30;;;;;;;6.67;3.63;;;;;;;22.96;54.67;98539.16;5009585;28;20198;-25
2023/10/06 09:45:06;;;;;;;6.30;3.80;;;;;;;22.96;54.53;98539.16;5009871;28;20225;-25
2023/10/06 09:47:35;;;;;;;3.93;3.10;;;;;;;22.95;54.67;98537.41;5005665;28;20281;-25
2023/10/06 09:50:02;;;;;;;5.53;4.00;;;;;;;22.97;54.43;98533.19;5007936;28;20206;-25
2023/10/06 09:52:30;;;;;;;5.37;4.07;;;;;;;22.88;54.39;98513.22;5010141;28;20201;-25
2023/10/06 09:54:57;;;;;;;5.40;3.93;;;;;;;22.96;54.40;98521.19;5005151;28;20241;-25
2023/10/06 09:57:24;;;;;;;5.53;3.87;;;;;;;22.93;54.44;98521.97;5008433;28;20199;-25
2023/10/06 09:59:55;;;;;;;8.50;4.37;;;;;;;22.96;54.64;98522.09;4993336;28;20202;-25
2023/10/06 10:02:23;;;;;;;5.63;3.67;;;;;;;22.96;54.66;98523.75;5006859;28;20213;-24
2023/10/06 10:04:50;;;;;;;3.87;3.40;;;;;;;22.96;54.77;98522.09;5004448;28;20280;-25
2023/10/06 10:07:17;;;;;;;6.20;3.80;;;;;;;22.96;54.83;98506.69;5006425;28;20210;-26
2023/10/06 10:09:43;;;;;;;5.93;3.90;;;;;;;22.97;54.79;98520.38;5009074;28;20198;-25
2023/10/06 10:12:37;;;;;;;5.67;3.90;;;;;;;22.97;54.90;98520.38;5004540;28;20205;-25
2023/10/06 10:15:26;;;;;;;5.80;4.27;;;;;;;22.97;55.01;98520.38;4993787;28;20222;-25
2023/10/06 10:18:06;;;;;;;5.13;3.77;;;;;;;22.97;55.14;98508.44;5010156;28;20199;-26
2023/10/06 10:20:34;;;;;;;4.10;3.67;;;;;;;22.96;55.20;98506.69;4993375;28;20233;-25
2023/10/06 10:23:01;;;;;;;6.80;4.20;;;;;;;22.97;54.89;98512.69;4991033;28;20326;-25
2023/10/06 10:25:29;;;;;;;6.70;3.97;;;;;;;22.96;54.75;98521.19;5009489;28;20198;-26
2023/10/06 10:28:16;;;;;;;5.97;4.10;;;;;;;22.95;54.88;98511.78;5006894;28;20202;-26
2023/10/06 10:31:02;;;;;;;5.27;3.87;;;;;;;22.95;54.90;98512.63;5007418;28;20202;-25
2023/10/06 10:33:33;;;;;;;4.37;3.63;;;;;;;22.96;54.93;98511.81;5001239;28;20219;-25
2023/10/06 10:36:12;;;;;;;5.87;3.93;;;;;;;22.96;55.01;98508.38;5005554;28;20210;-25
2023/10/06 10:38:39;;;;;;;5.83;4.07;;;;;;;22.95;55.08;98502.38;5006579;28;20202;-25
2023/10/06 10:41:08;;;;;;;5.17;3.90;;;;;;;22.96;55.19;98510.94;5008714;28;20226;-25
2023/10/06 10:43:41;;;;;;;6.80;4.07;;;;;;;22.96;55.17;98500.69;5010244;28;20307;-25
2023/10/06 10:46:12;;;;;;;6.57;4.23;;;;;;;22.97;55.32;98487.03;5004087;28;20659;-26
2023/10/06 10:48:47;;;;;;;7.17;4.30;;;;;;;22.97;55.50;98485.38;5003951;28;20253;-25
2023/10/06 10:51:15;;;;;;;6.63;4.03;;;;;;;22.97;55.26;98481.91;5003847;28;20290;-26
2023/10/06 10:53:43;;;;;;;6.33;4.23;;;;;;;22.98;55.41;98479.41;5007722;28;20250;-27
2023/10/06 10:56:25;;;;;;;5.17;3.70;;;;;;;22.97;55.35;98458.84;5014285;28;20195;-29
2023/10/06 10:58:53;;;;;;;6.33;3.87;;;;;;;22.98;55.25;98460.63;5014144;28;20205;-28
2023/10/06 11:01:29;;;;;;;5.23;3.93;;;;;;;22.98;55.33;98464.03;5007219;28;20222;-26
2023/10/06 11:04:18;;;;;;;5.57;4.00;;;;;;;22.98;55.34;98460.63;5009219;28;20232;-26
2023/10/06 11:06:48;;;;;;;8.97;4.27;;;;;;;22.98;55.35;98448.66;5007822;28;20291;-26
2023/10/06 11:09:36;;;;;;;4.63;3.63;;;;;;;22.99;55.41;98446.97;5003847;28;20275;-31
2023/10/06 11:12:09;;;;;;;7.00;3.57;;;;;;;22.99;55.47;98437.59;5008459;28;20815;-26
2023/10/06 11:14:53;;;;;;;5.77;4.07;;;;;;;23.00;55.45;98436.78;5011407;28;20304;-28
2023/10/06 11:17:21;;;;;;;6.30;3.80;;;;;;;23.00;55.47;98444.47;5014047;28;20571;-29
2023/10/06 11:20:01;;;;;;;6.27;3.90;;;;;;;23.00;55.54;98434.22;5014173;28;20203;-27
2023/10/06 11:22:32;;;;;;;7.90;4.10;;;;;;;23.00;55.53;98431.63;5011411;28;20669;-29
2023/10/06 11:25:03;;;;;;;7.23;4.20;;;;;;;23.00;55.73;98426.50;5007159;28;20250;-26
2023/10/06 11:27:29;;;;;;;8.90;4.60;;;;;;;23.01;55.52;98425.69;5013585;28;20194;-43
2023/10/06 11:29:58;;;;;;;8.23;4.83;;;;;;;23.01;55.68;98422.28;5011078;28;20213;-26
2023/10/06 11:32:26;;;;;;;6.70;4.33;;;;;;;23.02;55.91;98417.19;5009789;28;20248;-29
2023/10/06 11:34:53;;;;;;;10.40;5.23;;;;;;;23.02;55.60;98414.63;5012326;28;20604;-28
2023/10/06 11:37:23;;;;;;;12.07;5.40;;;;;;;23.01;55.94;98412.00;4992063;28;20233;-27
2023/10/06 11:39:55;;;;;;;11.17;5.10;;;;;;;23.02;55.69;98417.19;4991832;28;20205;-35
2023/10/06 11:42:41;;;;;;;17.37;6.47;;;;;;;22.97;55.61;98402.44;5013396;28;20653;-29
2023/10/06 11:45:41;;;;;;;13.87;6.23;;;;;;;23.03;55.77;98407.78;5008628;28;20218;-26
2023/10/06 11:48:31;;;;;;;14.80;7.23;;;;;;;23.01;55.94;98394.91;4979125;28;20636;-29
2023/10/06 11:51:01;;;;;;;15.17;7.47;;;;;;;23.03;56.00;98395.88;5007469;28;20672;-29
2023/10/06 11:53:29;;;;;;;21.67;7.73;;;;;;;23.03;56.25;98394.97;5012572;28;20269;-28
2023/10/06 11:56:07;;;;;;;17.93;7.80;;;;;;;23.03;56.32;98384.72;5006953;28;20203;-29
2023/10/06 11:58:35;;;;;;;17.30;8.03;;;;;;;23.00;56.32;98382.94;5010192;28;20194;-26